Pagrindinis puslapis
METAR-TAF:

METAR-TAF

Oro uostai :

Qurayyat, Saudo Arabija

platuma: 31-24N, ilguma: 037-16E, Aukštis: 509 m

Dabartinis oras

Ataskaita buvo paskelbta 30 minutes, ne 21:00 UTC
Vėjas 12 kt iš Vakarų
Temperatūra 12°C
Drėgmė 47%
Slėgis 1014 hPa
Matomumas 10 km arba daugiau
nėra debesų žemiau 1500 m ir nėra kamuolinių lietaus debesų

METAR: OEGT 212100Z 26012KT CAVOK 12/01 Q1014 NOSIG

Laikas: 00:30 (21:30 UTC)

Prognozė

Ataskaita buvo paskelbta 10 valandos ir 30 minutes, ne 11:00 UTC
Prognozė galioja nuo 21 metu 12 UTC su 22 metu 18 UTC
Vėjas 12 kt iš Pietų
Matomumas: 7000 m
Tapsmas
nuo 21 metu 20 UTC su 21 metu 22 UTC
Vėjas 3 kt nuo kintamojo kryptimis

TAF: OEGT 211100Z 2112/2218 18012KT 7000 NSC BECMG 2120/2122 VRB03KT

Orai ataskaitas ir orų prognozės (METAR, TAF).

turimą stotys yra geltonos ir raudonos taškus žemėlapyje.

Perkelti pele per norėdami pamatyti stoties vardą.

Tada spustelėkite, norėdami matyti oro stebėjimo ir prognozės.

Norėdami pakeisti žemėlapį: spustelėkite ant žalios mygtukų su juodo kryžiaus žemyn,; žalią mygtuką su brūkšneliu, jei norite nutolinti; arba žalių rodyklių gretimoms žemėlapius.


METAR-TAF: